Terminal Aerodrome Forecast
Issued by NWS

Home | Current Version | Previous Version | Text Only | Print | Product List | Glossary On
Versions: 1 2 3 4 5 6 7 8 9 10 11 12 13 14 15 16 17 18 19 20 21 22 23 24 25 26 27 28 29 30 31 32 33 34 35 36 37
000
FTUS45 KPSR 311100 RRA
TAFPHX
TAF
KPHX 311143Z 3112/0112 11004KT P6SM VCSH SCT035 OVC080
      TEMPO 3112/3114 BKN035 OVC060
     FM311400 10003KT 6SM BR VCSH BKN035 OVC070
     FM311800 11006KT P6SM BKN035 BKN070
     FM312200 29005KT P6SM VCSH BKN050
     FM010200 VRB03KT P6SM BKN070=

USA.gov is the U.S. government's official web portal to all federal, state and local government web resources and services.